createdAt,value
2018-11-27T00:11:02.191Z,0.7
2018-11-27T00:26:01.534Z,0.7
2018-11-27T00:31:01.261Z,0.8
2018-11-27T00:41:01.329Z,0.9
2018-11-27T00:46:01.260Z,1.0
2018-11-27T00:51:01.276Z,1.1
2018-11-27T01:06:01.325Z,1.1
2018-11-27T01:21:01.256Z,1.1
2018-11-27T01:26:01.506Z,1.0
2018-11-27T01:41:01.320Z,0.9
2018-11-27T01:51:01.315Z,0.7
2018-11-27T01:56:01.266Z,0.6
2018-11-27T02:01:02.164Z,0.5
2018-11-27T02:06:01.363Z,0.4
2018-11-27T02:11:01.343Z,0.2
2018-11-27T02:16:01.268Z,0.1
2018-11-27T02:26:01.361Z,-0.1
2018-11-27T02:31:01.295Z,-0.2
2018-11-27T02:36:01.709Z,-0.3
2018-11-27T02:41:01.423Z,-0.4
2018-11-27T02:51:01.316Z,-0.5
2018-11-27T03:01:01.314Z,-0.4
2018-11-27T03:16:01.430Z,-0.3
2018-11-27T03:21:01.393Z,-0.2
2018-11-27T03:26:01.467Z,-0.1
2018-11-27T03:51:01.378Z,0.1
2018-11-27T04:01:01.351Z,0.2
2018-11-27T04:17:01.443Z,0.2
2018-11-27T04:22:01.882Z,0.3
2018-11-27T04:37:01.277Z,0.3
2018-11-27T04:52:01.257Z,0.4
2018-11-27T04:57:01.270Z,0.5
2018-11-27T05:02:01.350Z,0.6
2018-11-27T05:12:01.450Z,0.7
2018-11-27T05:22:01.249Z,0.8
2018-11-27T05:37:01.320Z,0.9
2018-11-27T05:52:01.331Z,1.0
2018-11-27T06:07:01.316Z,1.0
2018-11-27T06:22:01.281Z,1.0
2018-11-27T06:37:06.256Z,1.0
2018-11-27T06:52:06.267Z,1.0
2018-11-27T07:07:01.296Z,1.0
2018-11-27T07:12:06.316Z,1.1
2018-11-27T07:27:01.282Z,1.2
2018-11-27T07:42:01.252Z,1.2
2018-11-27T07:47:01.260Z,1.3
2018-11-27T08:02:01.229Z,1.4
2018-11-27T08:17:01.262Z,1.5
2018-11-27T08:22:01.226Z,1.6
2018-11-27T08:32:01.263Z,1.7
2018-11-27T08:42:01.262Z,1.8
2018-11-27T08:52:01.262Z,1.9
2018-11-27T09:02:01.089Z,2.0
2018-11-27T09:12:01.279Z,2.1
2018-11-27T09:22:01.230Z,2.2
2018-11-27T09:32:01.256Z,2.3
2018-11-27T09:47:01.218Z,2.4
2018-11-27T10:02:01.441Z,2.5
2018-11-27T10:12:01.265Z,2.6
2018-11-27T10:22:01.272Z,2.7
2018-11-27T10:27:01.233Z,2.8
2018-11-27T10:37:02.052Z,2.9
2018-11-27T10:42:01.261Z,3.0
2018-11-27T10:52:01.259Z,3.1
2018-11-27T11:07:01.242Z,3.1
2018-11-27T11:12:01.296Z,3.2
2018-11-27T11:22:01.224Z,3.3
2018-11-27T11:32:01.298Z,3.4
2018-11-27T11:42:01.251Z,3.5
2018-11-27T11:57:01.300Z,3.6
2018-11-27T12:12:01.260Z,3.7
2018-11-27T12:27:01.236Z,3.6
2018-11-27T12:42:01.249Z,3.6
2018-11-27T12:47:01.226Z,3.7
2018-11-27T12:57:01.231Z,3.8
2018-11-27T13:12:01.226Z,3.9
2018-11-27T13:27:01.271Z,3.8
2018-11-27T13:42:01.255Z,3.7
2018-11-27T13:52:06.312Z,3.6
2018-11-27T14:07:01.275Z,3.5
2018-11-27T14:22:01.313Z,3.5
2018-11-27T14:32:01.224Z,3.4
2018-11-27T14:47:01.257Z,3.3
2018-11-27T15:02:01.330Z,3.2
2018-11-27T15:17:01.221Z,3.1
2018-11-27T15:32:01.271Z,3.1
2018-11-27T15:42:01.236Z,3.0
2018-11-27T15:57:01.388Z,3.0
2018-11-27T16:12:01.399Z,2.9
2018-11-27T16:27:01.336Z,2.9
2018-11-27T16:37:01.282Z,2.8
2018-11-27T16:52:01.395Z,2.8
2018-11-27T17:07:01.398Z,2.8
2018-11-27T17:22:01.348Z,2.8
2018-11-27T17:37:01.389Z,2.8
2018-11-27T17:52:01.336Z,2.8
2018-11-27T18:07:01.284Z,2.8
2018-11-27T18:22:01.337Z,2.8
2018-11-27T18:37:01.265Z,2.8
2018-11-27T18:52:01.274Z,2.8
2018-11-27T19:07:01.353Z,2.8
2018-11-27T19:22:01.337Z,2.8
2018-11-27T19:37:02.421Z,2.8
2018-11-27T19:52:01.346Z,2.8
2018-11-27T20:07:01.383Z,2.8
2018-11-27T20:12:01.324Z,2.7
2018-11-27T20:27:01.355Z,2.7
2018-11-27T20:42:01.320Z,2.7
2018-11-27T20:57:01.331Z,2.7
2018-11-27T21:12:01.384Z,2.8
2018-11-27T21:27:01.319Z,2.8
2018-11-27T21:42:01.260Z,2.7
2018-11-27T21:57:01.341Z,2.7
2018-11-27T22:13:01.340Z,2.7
2018-11-27T22:18:01.488Z,2.8
2018-11-27T22:33:01.321Z,2.8
2018-11-27T22:48:01.326Z,2.7
2018-11-27T23:03:01.277Z,2.7
2018-11-27T23:18:01.333Z,2.7
2018-11-27T23:33:02.325Z,2.7
2018-11-27T23:48:01.326Z,2.7
2018-11-27T23:58:01.358Z,2.6
